sensor_id;sensor_type;location;lat;lon;timestamp;temperature;humidity
19152;DHT22;9708;53.114;9.388;2023-07-31T00:01:06;15.60;99.90
19152;DHT22;9708;53.114;9.388;2023-07-31T00:03:33;15.60;99.90
19152;DHT22;9708;53.114;9.388;2023-07-31T00:06:00;15.50;99.90
19152;DHT22;9708;53.114;9.388;2023-07-31T00:08:27;15.60;99.90
19152;DHT22;9708;53.114;9.388;2023-07-31T00:10:55;15.60;99.90
19152;DHT22;9708;53.114;9.388;2023-07-31T00:13:21;15.70;99.90
19152;DHT22;9708;53.114;9.388;2023-07-31T00:15:48;15.60;99.90
19152;DHT22;9708;53.114;9.388;2023-07-31T00:18:15;15.60;99.90
19152;DHT22;9708;53.114;9.388;2023-07-31T00:20:42;15.60;99.90
19152;DHT22;9708;53.114;9.388;2023-07-31T00:23:09;15.50;99.90
19152;DHT22;9708;53.114;9.388;2023-07-31T00:25:35;15.60;99.90
19152;DHT22;9708;53.114;9.388;2023-07-31T00:28:04;15.70;99.90
19152;DHT22;9708;53.114;9.388;2023-07-31T00:30:30;15.60;99.90
19152;DHT22;9708;53.114;9.388;2023-07-31T00:32:57;15.60;99.90
19152;DHT22;9708;53.114;9.388;2023-07-31T00:35:24;15.60;99.90
19152;DHT22;9708;53.114;9.388;2023-07-31T00:37:51;15.50;99.90
19152;DHT22;9708;53.114;9.388;2023-07-31T00:40:17;15.50;99.90
19152;DHT22;9708;53.114;9.388;2023-07-31T00:42:44;15.50;99.90
19152;DHT22;9708;53.114;9.388;2023-07-31T00:45:12;15.50;99.90
19152;DHT22;9708;53.114;9.388;2023-07-31T00:47:39;15.50;99.90
19152;DHT22;9708;53.114;9.388;2023-07-31T00:50:07;15.50;99.90
19152;DHT22;9708;53.114;9.388;2023-07-31T00:52:35;15.50;99.90
19152;DHT22;9708;53.114;9.388;2023-07-31T00:55:02;15.50;99.90
19152;DHT22;9708;53.114;9.388;2023-07-31T00:57:30;15.50;99.90
19152;DHT22;9708;53.114;9.388;2023-07-31T00:59:57;15.60;99.90
19152;DHT22;9708;53.114;9.388;2023-07-31T01:02:25;15.50;99.90
19152;DHT22;9708;53.114;9.388;2023-07-31T01:04:52;15.60;99.90
19152;DHT22;9708;53.114;9.388;2023-07-31T01:07:22;15.60;99.90
19152;DHT22;9708;53.114;9.388;2023-07-31T01:10:04;15.60;99.90
19152;DHT22;9708;53.114;9.388;2023-07-31T01:12:34;15.60;99.90
19152;DHT22;9708;53.114;9.388;2023-07-31T01:15:04;15.60;99.90
19152;DHT22;9708;53.114;9.388;2023-07-31T01:17:32;15.60;99.90
19152;DHT22;9708;53.114;9.388;2023-07-31T01:20:02;15.60;99.90
19152;DHT22;9708;53.114;9.388;2023-07-31T01:22:39;15.50;99.90
19152;DHT22;9708;53.114;9.388;2023-07-31T01:25:18;15.50;99.90
19152;DHT22;9708;53.114;9.388;2023-07-31T01:27:51;15.50;99.90
19152;DHT22;9708;53.114;9.388;2023-07-31T01:30:23;15.50;99.90
19152;DHT22;9708;53.114;9.388;2023-07-31T01:32:53;15.50;99.90
19152;DHT22;9708;53.114;9.388;2023-07-31T01:35:21;15.50;99.90
19152;DHT22;9708;53.114;9.388;2023-07-31T01:37:48;15.50;99.90
19152;DHT22;9708;53.114;9.388;2023-07-31T01:40:15;15.50;99.90
19152;DHT22;9708;53.114;9.388;2023-07-31T01:42:41;15.50;99.90
19152;DHT22;9708;53.114;9.388;2023-07-31T01:45:11;15.50;99.90
19152;DHT22;9708;53.114;9.388;2023-07-31T01:47:38;15.40;99.90
19152;DHT22;9708;53.114;9.388;2023-07-31T01:50:05;15.50;99.90
19152;DHT22;9708;53.114;9.388;2023-07-31T01:52:32;15.50;99.90
19152;DHT22;9708;53.114;9.388;2023-07-31T01:54:59;15.50;99.90
19152;DHT22;9708;53.114;9.388;2023-07-31T01:57:26;15.50;99.90
19152;DHT22;9708;53.114;9.388;2023-07-31T01:59:52;15.50;99.90
19152;DHT22;9708;53.114;9.388;2023-07-31T02:02:21;15.50;99.90
19152;DHT22;9708;53.114;9.388;2023-07-31T02:04:49;15.50;99.90
19152;DHT22;9708;53.114;9.388;2023-07-31T02:07:16;15.50;99.90
19152;DHT22;9708;53.114;9.388;2023-07-31T02:09:42;15.50;99.90
19152;DHT22;9708;53.114;9.388;2023-07-31T02:12:09;15.50;99.90
19152;DHT22;9708;53.114;9.388;2023-07-31T02:14:36;15.50;99.90
19152;DHT22;9708;53.114;9.388;2023-07-31T02:17:03;15.60;99.90
19152;DHT22;9708;53.114;9.388;2023-07-31T02:19:31;15.50;99.90
19152;DHT22;9708;53.114;9.388;2023-07-31T02:21:58;15.50;99.90
19152;DHT22;9708;53.114;9.388;2023-07-31T02:24:25;15.60;99.90
19152;DHT22;9708;53.114;9.388;2023-07-31T02:26:51;15.60;99.90
19152;DHT22;9708;53.114;9.388;2023-07-31T02:29:18;15.60;99.90
19152;DHT22;9708;53.114;9.388;2023-07-31T02:31:45;15.60;99.90
19152;DHT22;9708;53.114;9.388;2023-07-31T02:34:12;15.60;99.90
19152;DHT22;9708;53.114;9.388;2023-07-31T02:36:40;15.70;99.90
19152;DHT22;9708;53.114;9.388;2023-07-31T02:39:06;15.70;99.90
19152;DHT22;9708;53.114;9.388;2023-07-31T02:41:33;15.70;99.90
19152;DHT22;9708;53.114;9.388;2023-07-31T02:44:00;15.70;99.90
19152;DHT22;9708;53.114;9.388;2023-07-31T02:46:27;15.60;99.90
19152;DHT22;9708;53.114;9.388;2023-07-31T02:48:53;15.70;99.90
19152;DHT22;9708;53.114;9.388;2023-07-31T02:51:20;15.70;99.90
19152;DHT22;9708;53.114;9.388;2023-07-31T02:53:48;15.60;99.90
19152;DHT22;9708;53.114;9.388;2023-07-31T02:56:16;15.60;99.90
19152;DHT22;9708;53.114;9.388;2023-07-31T02:58:42;15.60;99.90
19152;DHT22;9708;53.114;9.388;2023-07-31T03:01:09;15.50;99.90
19152;DHT22;9708;53.114;9.388;2023-07-31T03:03:36;15.50;99.90
19152;DHT22;9708;53.114;9.388;2023-07-31T03:06:03;15.50;99.90
19152;DHT22;9708;53.114;9.388;2023-07-31T03:08:29;15.50;99.90
19152;DHT22;9708;53.114;9.388;2023-07-31T03:10:58;15.50;99.90
19152;DHT22;9708;53.114;9.388;2023-07-31T03:13:25;15.40;99.90
19152;DHT22;9708;53.114;9.388;2023-07-31T03:15:51;15.40;99.90
19152;DHT22;9708;53.114;9.388;2023-07-31T03:18:18;15.30;99.90
19152;DHT22;9708;53.114;9.388;2023-07-31T03:20:45;15.30;99.90
19152;DHT22;9708;53.114;9.388;2023-07-31T03:23:12;15.40;99.90
19152;DHT22;9708;53.114;9.388;2023-07-31T03:25:39;15.40;99.90
19152;DHT22;9708;53.114;9.388;2023-07-31T03:28:07;15.40;99.90
19152;DHT22;9708;53.114;9.388;2023-07-31T03:30:36;15.40;99.90
19152;DHT22;9708;53.114;9.388;2023-07-31T03:33:08;15.40;99.90
19152;DHT22;9708;53.114;9.388;2023-07-31T03:35:35;15.40;99.90
19152;DHT22;9708;53.114;9.388;2023-07-31T03:38:01;15.30;99.90
19152;DHT22;9708;53.114;9.388;2023-07-31T03:40:28;15.30;99.90
19152;DHT22;9708;53.114;9.388;2023-07-31T03:42:55;15.40;99.90
19152;DHT22;9708;53.114;9.388;2023-07-31T03:45:23;15.30;99.90
19152;DHT22;9708;53.114;9.388;2023-07-31T03:47:50;15.30;99.90
19152;DHT22;9708;53.114;9.388;2023-07-31T03:50:17;15.30;99.90
19152;DHT22;9708;53.114;9.388;2023-07-31T03:52:43;15.20;99.90
19152;DHT22;9708;53.114;9.388;2023-07-31T03:55:10;15.30;99.90
19152;DHT22;9708;53.114;9.388;2023-07-31T03:57:37;15.30;99.90
19152;DHT22;9708;53.114;9.388;2023-07-31T04:00:05;15.40;99.90
19152;DHT22;9708;53.114;9.388;2023-07-31T04:02:33;15.20;99.90
19152;DHT22;9708;53.114;9.388;2023-07-31T04:05:00;15.30;99.90
19152;DHT22;9708;53.114;9.388;2023-07-31T04:07:27;15.30;99.90
19152;DHT22;9708;53.114;9.388;2023-07-31T04:09:53;15.30;99.90
19152;DHT22;9708;53.114;9.388;2023-07-31T04:12:20;15.30;99.90
19152;DHT22;9708;53.114;9.388;2023-07-31T04:14:47;15.30;99.90
19152;DHT22;9708;53.114;9.388;2023-07-31T04:17:14;15.30;99.90
19152;DHT22;9708;53.114;9.388;2023-07-31T04:19:42;15.30;99.90
19152;DHT22;9708;53.114;9.388;2023-07-31T04:22:09;15.30;99.90
19152;DHT22;9708;53.114;9.388;2023-07-31T04:24:36;15.30;99.90
19152;DHT22;9708;53.114;9.388;2023-07-31T04:27:03;15.20;99.90
19152;DHT22;9708;53.114;9.388;2023-07-31T04:29:30;15.30;99.90
19152;DHT22;9708;53.114;9.388;2023-07-31T04:31:56;15.30;99.90
19152;DHT22;9708;53.114;9.388;2023-07-31T04:34:23;15.30;99.90
19152;DHT22;9708;53.114;9.388;2023-07-31T04:36:51;15.50;99.90
19152;DHT22;9708;53.114;9.388;2023-07-31T04:39:19;15.50;99.90
19152;DHT22;9708;53.114;9.388;2023-07-31T04:41:46;15.50;99.90
19152;DHT22;9708;53.114;9.388;2023-07-31T04:44:13;15.50;99.90
19152;DHT22;9708;53.114;9.388;2023-07-31T04:46:40;15.50;99.90
19152;DHT22;9708;53.114;9.388;2023-07-31T04:49:07;15.50;99.90
19152;DHT22;9708;53.114;9.388;2023-07-31T04:51:33;15.40;99.90
19152;DHT22;9708;53.114;9.388;2023-07-31T04:54:02;15.60;99.90
19152;DHT22;9708;53.114;9.388;2023-07-31T04:56:28;15.60;99.90
19152;DHT22;9708;53.114;9.388;2023-07-31T04:58:55;15.60;99.90
19152;DHT22;9708;53.114;9.388;2023-07-31T05:01:22;15.70;99.90
19152;DHT22;9708;53.114;9.388;2023-07-31T05:03:49;15.70;99.90
19152;DHT22;9708;53.114;9.388;2023-07-31T05:06:16;15.70;99.90
19152;DHT22;9708;53.114;9.388;2023-07-31T05:08:42;15.80;99.90
19152;DHT22;9708;53.114;9.388;2023-07-31T05:11:11;15.70;99.90
19152;DHT22;9708;53.114;9.388;2023-07-31T05:13:38;15.70;99.90
19152;DHT22;9708;53.114;9.388;2023-07-31T05:16:05;15.70;99.90
19152;DHT22;9708;53.114;9.388;2023-07-31T05:18:32;15.80;99.90
19152;DHT22;9708;53.114;9.388;2023-07-31T05:20:59;15.70;99.90
19152;DHT22;9708;53.114;9.388;2023-07-31T05:23:25;15.70;99.90
19152;DHT22;9708;53.114;9.388;2023-07-31T05:25:52;15.70;99.90
19152;DHT22;9708;53.114;9.388;2023-07-31T05:28:21;15.80;99.90
19152;DHT22;9708;53.114;9.388;2023-07-31T05:30:48;15.80;99.90
19152;DHT22;9708;53.114;9.388;2023-07-31T05:33:15;15.80;99.90
19152;DHT22;9708;53.114;9.388;2023-07-31T05:35:41;15.80;99.90
19152;DHT22;9708;53.114;9.388;2023-07-31T05:38:10;15.80;99.90
19152;DHT22;9708;53.114;9.388;2023-07-31T05:40:37;15.90;99.90
19152;DHT22;9708;53.114;9.388;2023-07-31T05:43:04;15.80;99.90
19152;DHT22;9708;53.114;9.388;2023-07-31T05:45:33;15.80;99.90
19152;DHT22;9708;53.114;9.388;2023-07-31T05:48:00;15.80;99.90
19152;DHT22;9708;53.114;9.388;2023-07-31T05:50:26;15.90;99.90
19152;DHT22;9708;53.114;9.388;2023-07-31T05:52:53;15.90;99.90
19152;DHT22;9708;53.114;9.388;2023-07-31T05:55:20;15.90;99.90
19152;DHT22;9708;53.114;9.388;2023-07-31T05:57:47;15.90;99.90
19152;DHT22;9708;53.114;9.388;2023-07-31T06:00:14;15.80;99.90
19152;DHT22;9708;53.114;9.388;2023-07-31T06:02:42;15.90;99.90
19152;DHT22;9708;53.114;9.388;2023-07-31T06:05:09;15.90;99.90
19152;DHT22;9708;53.114;9.388;2023-07-31T06:07:36;15.80;99.90
19152;DHT22;9708;53.114;9.388;2023-07-31T06:10:04;15.80;99.90
19152;DHT22;9708;53.114;9.388;2023-07-31T06:12:31;15.90;99.90
19152;DHT22;9708;53.114;9.388;2023-07-31T06:14:58;15.90;99.90
19152;DHT22;9708;53.114;9.388;2023-07-31T06:17:25;15.90;99.90
19152;DHT22;9708;53.114;9.388;2023-07-31T06:19:54;16.00;99.90
19152;DHT22;9708;53.114;9.388;2023-07-31T06:22:20;16.10;99.90
19152;DHT22;9708;53.114;9.388;2023-07-31T06:24:47;16.20;99.90
19152;DHT22;9708;53.114;9.388;2023-07-31T06:27:14;16.00;99.90
19152;DHT22;9708;53.114;9.388;2023-07-31T06:29:41;16.00;99.90
19152;DHT22;9708;53.114;9.388;2023-07-31T06:32:08;16.10;99.90
19152;DHT22;9708;53.114;9.388;2023-07-31T06:34:35;16.20;99.90
19152;DHT22;9708;53.114;9.388;2023-07-31T06:37:04;16.30;99.90
19152;DHT22;9708;53.114;9.388;2023-07-31T06:39:31;16.30;99.90
19152;DHT22;9708;53.114;9.388;2023-07-31T06:41:57;16.20;99.90
19152;DHT22;9708;53.114;9.388;2023-07-31T06:44:24;16.20;99.90
19152;DHT22;9708;53.114;9.388;2023-07-31T06:46:51;16.10;99.90
19152;DHT22;9708;53.114;9.388;2023-07-31T06:49:18;16.20;99.90
19152;DHT22;9708;53.114;9.388;2023-07-31T06:51:45;16.20;99.90
19152;DHT22;9708;53.114;9.388;2023-07-31T06:54:13;16.20;99.90
19152;DHT22;9708;53.114;9.388;2023-07-31T06:56:40;16.10;99.90
19152;DHT22;9708;53.114;9.388;2023-07-31T06:59:06;16.20;99.90
19152;DHT22;9708;53.114;9.388;2023-07-31T07:01:33;16.20;99.90
19152;DHT22;9708;53.114;9.388;2023-07-31T07:04:00;16.30;99.90
19152;DHT22;9708;53.114;9.388;2023-07-31T07:06:27;16.30;99.90
19152;DHT22;9708;53.114;9.388;2023-07-31T07:08:53;16.20;99.90
19152;DHT22;9708;53.114;9.388;2023-07-31T07:11:22;16.20;99.90
19152;DHT22;9708;53.114;9.388;2023-07-31T07:13:48;16.30;99.90
19152;DHT22;9708;53.114;9.388;2023-07-31T07:16:15;16.20;99.90
19152;DHT22;9708;53.114;9.388;2023-07-31T07:18:42;16.10;99.90
19152;DHT22;9708;53.114;9.388;2023-07-31T07:21:09;16.20;99.90
19152;DHT22;9708;53.114;9.388;2023-07-31T07:23:39;16.20;99.90
19152;DHT22;9708;53.114;9.388;2023-07-31T07:26:06;16.20;99.90
19152;DHT22;9708;53.114;9.388;2023-07-31T07:28:34;16.20;99.90
19152;DHT22;9708;53.114;9.388;2023-07-31T07:31:02;16.30;99.90
19152;DHT22;9708;53.114;9.388;2023-07-31T07:33:29;16.30;99.90
19152;DHT22;9708;53.114;9.388;2023-07-31T07:36:00;16.30;99.90
19152;DHT22;9708;53.114;9.388;2023-07-31T07:38:26;16.30;99.90
19152;DHT22;9708;53.114;9.388;2023-07-31T07:40:53;16.40;99.90
19152;DHT22;9708;53.114;9.388;2023-07-31T07:43:20;16.40;99.90
19152;DHT22;9708;53.114;9.388;2023-07-31T07:45:49;16.50;99.90
19152;DHT22;9708;53.114;9.388;2023-07-31T07:48:16;16.50;99.90
19152;DHT22;9708;53.114;9.388;2023-07-31T07:50:43;16.50;99.90
19152;DHT22;9708;53.114;9.388;2023-07-31T07:53:10;16.60;99.90
19152;DHT22;9708;53.114;9.388;2023-07-31T07:55:37;16.70;99.90
19152;DHT22;9708;53.114;9.388;2023-07-31T07:58:03;16.70;99.90
19152;DHT22;9708;53.114;9.388;2023-07-31T08:00:30;16.70;99.90
19152;DHT22;9708;53.114;9.388;2023-07-31T08:02:58;16.80;99.90
19152;DHT22;9708;53.114;9.388;2023-07-31T08:05:25;16.70;99.90
19152;DHT22;9708;53.114;9.388;2023-07-31T08:07:52;16.70;99.90
19152;DHT22;9708;53.114;9.388;2023-07-31T08:10:19;16.60;99.90
19152;DHT22;9708;53.114;9.388;2023-07-31T08:12:46;16.60;99.90
19152;DHT22;9708;53.114;9.388;2023-07-31T08:15:13;16.80;99.90
19152;DHT22;9708;53.114;9.388;2023-07-31T08:17:39;16.90;99.90
19152;DHT22;9708;53.114;9.388;2023-07-31T08:20:10;16.90;99.90
19152;DHT22;9708;53.114;9.388;2023-07-31T08:22:37;16.90;99.90
19152;DHT22;9708;53.114;9.388;2023-07-31T08:25:04;16.90;99.90
19152;DHT22;9708;53.114;9.388;2023-07-31T08:27:32;16.80;99.90
19152;DHT22;9708;53.114;9.388;2023-07-31T08:29:59;16.80;99.90
19152;DHT22;9708;53.114;9.388;2023-07-31T08:32:25;16.90;99.90
19152;DHT22;9708;53.114;9.388;2023-07-31T08:34:52;17.00;99.90
19152;DHT22;9708;53.114;9.388;2023-07-31T08:37:20;17.10;99.90
19152;DHT22;9708;53.114;9.388;2023-07-31T08:39:47;17.30;99.90
19152;DHT22;9708;53.114;9.388;2023-07-31T08:42:14;17.30;99.90
19152;DHT22;9708;53.114;9.388;2023-07-31T08:44:41;17.20;99.90
19152;DHT22;9708;53.114;9.388;2023-07-31T08:47:10;17.30;99.90
19152;DHT22;9708;53.114;9.388;2023-07-31T08:49:38;17.20;99.90
19152;DHT22;9708;53.114;9.388;2023-07-31T08:52:07;17.20;99.90
19152;DHT22;9708;53.114;9.388;2023-07-31T08:54:35;17.30;99.90
19152;DHT22;9708;53.114;9.388;2023-07-31T08:57:02;17.30;99.90
19152;DHT22;9708;53.114;9.388;2023-07-31T08:59:31;17.50;99.90
19152;DHT22;9708;53.114;9.388;2023-07-31T09:02:03;17.50;99.90
19152;DHT22;9708;53.114;9.388;2023-07-31T09:04:32;17.50;99.90
19152;DHT22;9708;53.114;9.388;2023-07-31T09:07:01;17.60;99.90
19152;DHT22;9708;53.114;9.388;2023-07-31T09:09:30;17.60;99.90
19152;DHT22;9708;53.114;9.388;2023-07-31T09:11:58;17.70;99.90
19152;DHT22;9708;53.114;9.388;2023-07-31T09:14:26;17.70;99.90
19152;DHT22;9708;53.114;9.388;2023-07-31T09:16:53;17.70;99.90
19152;DHT22;9708;53.114;9.388;2023-07-31T09:19:28;17.60;99.90
19152;DHT22;9708;53.114;9.388;2023-07-31T09:21:55;17.70;99.90
19152;DHT22;9708;53.114;9.388;2023-07-31T09:24:26;17.70;99.90
19152;DHT22;9708;53.114;9.388;2023-07-31T09:26:54;17.80;99.90
19152;DHT22;9708;53.114;9.388;2023-07-31T09:29:22;17.80;99.90
19152;DHT22;9708;53.114;9.388;2023-07-31T09:31:50;18.00;99.90
19152;DHT22;9708;53.114;9.388;2023-07-31T09:34:17;17.90;99.90
19152;DHT22;9708;53.114;9.388;2023-07-31T09:36:45;17.80;99.90
19152;DHT22;9708;53.114;9.388;2023-07-31T09:39:13;17.70;99.90
19152;DHT22;9708;53.114;9.388;2023-07-31T09:41:43;17.70;99.90
19152;DHT22;9708;53.114;9.388;2023-07-31T09:44:10;17.60;99.90
19152;DHT22;9708;53.114;9.388;2023-07-31T09:46:38;17.60;99.90
19152;DHT22;9708;53.114;9.388;2023-07-31T09:49:07;17.60;99.90
19152;DHT22;9708;53.114;9.388;2023-07-31T09:51:34;17.60;99.90
19152;DHT22;9708;53.114;9.388;2023-07-31T09:54:08;17.70;99.90
19152;DHT22;9708;53.114;9.388;2023-07-31T09:56:36;17.60;99.90
19152;DHT22;9708;53.114;9.388;2023-07-31T09:59:05;17.60;99.90
19152;DHT22;9708;53.114;9.388;2023-07-31T10:01:32;17.60;99.90
19152;DHT22;9708;53.114;9.388;2023-07-31T10:04:01;17.70;99.90
19152;DHT22;9708;53.114;9.388;2023-07-31T10:06:28;17.60;99.90
19152;DHT22;9708;53.114;9.388;2023-07-31T10:08:56;17.60;99.90
19152;DHT22;9708;53.114;9.388;2023-07-31T10:11:24;17.60;99.90
19152;DHT22;9708;53.114;9.388;2023-07-31T10:13:54;17.60;99.90
19152;DHT22;9708;53.114;9.388;2023-07-31T10:16:21;17.60;99.90
19152;DHT22;9708;53.114;9.388;2023-07-31T10:18:49;17.60;99.90
19152;DHT22;9708;53.114;9.388;2023-07-31T10:21:18;17.60;99.90
19152;DHT22;9708;53.114;9.388;2023-07-31T10:23:46;17.60;99.90
19152;DHT22;9708;53.114;9.388;2023-07-31T10:26:16;17.80;99.90
19152;DHT22;9708;53.114;9.388;2023-07-31T10:28:44;17.70;99.90
19152;DHT22;9708;53.114;9.388;2023-07-31T10:31:13;17.60;99.90
19152;DHT22;9708;53.114;9.388;2023-07-31T10:33:40;17.60;99.90
19152;DHT22;9708;53.114;9.388;2023-07-31T10:36:13;17.60;99.90
19152;DHT22;9708;53.114;9.388;2023-07-31T10:38:43;17.80;99.90
19152;DHT22;9708;53.114;9.388;2023-07-31T10:41:10;17.90;99.90
19152;DHT22;9708;53.114;9.388;2023-07-31T10:43:40;17.90;99.90
19152;DHT22;9708;53.114;9.388;2023-07-31T10:46:07;17.90;99.90
19152;DHT22;9708;53.114;9.388;2023-07-31T10:48:36;17.80;99.90
19152;DHT22;9708;53.114;9.388;2023-07-31T10:51:08;17.70;99.90
19152;DHT22;9708;53.114;9.388;2023-07-31T10:53:37;17.80;99.90
19152;DHT22;9708;53.114;9.388;2023-07-31T10:56:07;18.00;99.90
19152;DHT22;9708;53.114;9.388;2023-07-31T10:58:36;18.00;99.90
19152;DHT22;9708;53.114;9.388;2023-07-31T11:01:04;18.10;99.90
19152;DHT22;9708;53.114;9.388;2023-07-31T11:03:42;18.00;99.90
19152;DHT22;9708;53.114;9.388;2023-07-31T11:06:08;18.10;99.90
19152;DHT22;9708;53.114;9.388;2023-07-31T11:08:40;18.10;99.90
19152;DHT22;9708;53.114;9.388;2023-07-31T11:11:12;18.20;99.90
19152;DHT22;9708;53.114;9.388;2023-07-31T11:13:41;18.10;99.90
19152;DHT22;9708;53.114;9.388;2023-07-31T11:16:08;18.20;99.90
19152;DHT22;9708;53.114;9.388;2023-07-31T11:18:35;18.30;99.90
19152;DHT22;9708;53.114;9.388;2023-07-31T11:21:02;18.20;99.90
19152;DHT22;9708;53.114;9.388;2023-07-31T11:23:28;18.10;99.90
19152;DHT22;9708;53.114;9.388;2023-07-31T11:25:59;18.10;99.90
19152;DHT22;9708;53.114;9.388;2023-07-31T11:28:31;18.10;99.90
19152;DHT22;9708;53.114;9.388;2023-07-31T11:30:59;18.20;99.90
19152;DHT22;9708;53.114;9.388;2023-07-31T11:33:28;18.20;99.90
19152;DHT22;9708;53.114;9.388;2023-07-31T11:35:55;18.00;99.90
19152;DHT22;9708;53.114;9.388;2023-07-31T11:38:22;18.00;99.90
19152;DHT22;9708;53.114;9.388;2023-07-31T11:40:50;17.90;99.90
19152;DHT22;9708;53.114;9.388;2023-07-31T11:43:18;17.90;99.90
19152;DHT22;9708;53.114;9.388;2023-07-31T11:45:47;18.10;99.90
19152;DHT22;9708;53.114;9.388;2023-07-31T11:48:19;18.00;99.90
19152;DHT22;9708;53.114;9.388;2023-07-31T11:50:48;18.20;99.90
19152;DHT22;9708;53.114;9.388;2023-07-31T11:53:18;18.10;99.90
19152;DHT22;9708;53.114;9.388;2023-07-31T11:55:46;18.20;99.90
19152;DHT22;9708;53.114;9.388;2023-07-31T11:58:14;18.30;99.90
19152;DHT22;9708;53.114;9.388;2023-07-31T12:00:42;18.30;99.90
19152;DHT22;9708;53.114;9.388;2023-07-31T12:03:10;18.30;99.90
19152;DHT22;9708;53.114;9.388;2023-07-31T12:05:38;18.30;99.90
19152;DHT22;9708;53.114;9.388;2023-07-31T12:08:09;18.30;99.90
19152;DHT22;9708;53.114;9.388;2023-07-31T12:10:37;18.40;99.90
19152;DHT22;9708;53.114;9.388;2023-07-31T12:13:07;18.50;99.90
19152;DHT22;9708;53.114;9.388;2023-07-31T12:15:38;18.50;99.90
19152;DHT22;9708;53.114;9.388;2023-07-31T12:18:06;18.40;99.90
19152;DHT22;9708;53.114;9.388;2023-07-31T12:20:34;18.40;99.90
19152;DHT22;9708;53.114;9.388;2023-07-31T12:23:01;18.40;99.90
19152;DHT22;9708;53.114;9.388;2023-07-31T12:25:30;18.30;99.90
19152;DHT22;9708;53.114;9.388;2023-07-31T12:27:57;18.30;99.90
19152;DHT22;9708;53.114;9.388;2023-07-31T12:30:27;18.20;99.90
19152;DHT22;9708;53.114;9.388;2023-07-31T12:32:54;18.30;99.90
19152;DHT22;9708;53.114;9.388;2023-07-31T12:35:21;18.30;99.90
19152;DHT22;9708;53.114;9.388;2023-07-31T12:37:49;18.40;99.90
19152;DHT22;9708;53.114;9.388;2023-07-31T12:40:16;18.50;99.90
19152;DHT22;9708;53.114;9.388;2023-07-31T12:42:43;18.60;99.90
19152;DHT22;9708;53.114;9.388;2023-07-31T12:45:10;18.70;99.90
19152;DHT22;9708;53.114;9.388;2023-07-31T12:47:36;18.60;99.90
19152;DHT22;9708;53.114;9.388;2023-07-31T12:50:04;18.70;99.90
19152;DHT22;9708;53.114;9.388;2023-07-31T12:52:31;18.70;99.90
19152;DHT22;9708;53.114;9.388;2023-07-31T12:54:59;18.80;99.90
19152;DHT22;9708;53.114;9.388;2023-07-31T12:57:26;18.60;99.90
19152;DHT22;9708;53.114;9.388;2023-07-31T12:59:52;18.50;99.90
19152;DHT22;9708;53.114;9.388;2023-07-31T13:02:19;18.60;99.90
19152;DHT22;9708;53.114;9.388;2023-07-31T13:04:46;18.60;99.90
19152;DHT22;9708;53.114;9.388;2023-07-31T13:07:13;18.60;99.90
19152;DHT22;9708;53.114;9.388;2023-07-31T13:09:39;18.60;99.90
19152;DHT22;9708;53.114;9.388;2023-07-31T13:12:08;18.60;99.90
19152;DHT22;9708;53.114;9.388;2023-07-31T13:14:35;18.60;99.90
19152;DHT22;9708;53.114;9.388;2023-07-31T13:17:02;18.50;99.90
19152;DHT22;9708;53.114;9.388;2023-07-31T13:19:29;18.40;99.90
19152;DHT22;9708;53.114;9.388;2023-07-31T13:21:56;18.50;99.90
19152;DHT22;9708;53.114;9.388;2023-07-31T13:24:22;18.40;99.90
19152;DHT22;9708;53.114;9.388;2023-07-31T13:26:49;18.50;99.90
19152;DHT22;9708;53.114;9.388;2023-07-31T13:29:17;18.50;99.90
19152;DHT22;9708;53.114;9.388;2023-07-31T13:31:44;18.60;99.90
19152;DHT22;9708;53.114;9.388;2023-07-31T13:34:11;18.60;99.90
19152;DHT22;9708;53.114;9.388;2023-07-31T13:36:38;18.70;99.90
19152;DHT22;9708;53.114;9.388;2023-07-31T13:39:04;18.70;99.90
19152;DHT22;9708;53.114;9.388;2023-07-31T13:41:31;18.80;99.90
19152;DHT22;9708;53.114;9.388;2023-07-31T13:43:58;18.60;99.90
19152;DHT22;9708;53.114;9.388;2023-07-31T13:46:26;18.60;99.90
19152;DHT22;9708;53.114;9.388;2023-07-31T13:48:53;18.60;99.90
19152;DHT22;9708;53.114;9.388;2023-07-31T13:51:21;18.50;99.90
19152;DHT22;9708;53.114;9.388;2023-07-31T13:53:48;18.50;99.90
19152;DHT22;9708;53.114;9.388;2023-07-31T13:56:15;18.50;99.90
19152;DHT22;9708;53.114;9.388;2023-07-31T13:58:42;18.60;99.90
19152;DHT22;9708;53.114;9.388;2023-07-31T14:01:09;18.60;99.90
19152;DHT22;9708;53.114;9.388;2023-07-31T14:03:37;18.70;99.90
19152;DHT22;9708;53.114;9.388;2023-07-31T14:06:03;18.70;99.90
19152;DHT22;9708;53.114;9.388;2023-07-31T14:08:30;18.80;99.90
19152;DHT22;9708;53.114;9.388;2023-07-31T14:10:57;18.70;99.90
19152;DHT22;9708;53.114;9.388;2023-07-31T14:13:24;18.80;99.90
19152;DHT22;9708;53.114;9.388;2023-07-31T14:15:51;18.80;99.90
19152;DHT22;9708;53.114;9.388;2023-07-31T14:18:18;18.70;99.90
19152;DHT22;9708;53.114;9.388;2023-07-31T14:20:46;18.80;99.90
19152;DHT22;9708;53.114;9.388;2023-07-31T14:23:13;18.70;99.90
19152;DHT22;9708;53.114;9.388;2023-07-31T14:25:41;18.70;99.90
19152;DHT22;9708;53.114;9.388;2023-07-31T14:28:07;18.70;99.90
19152;DHT22;9708;53.114;9.388;2023-07-31T14:30:34;18.60;99.90
19152;DHT22;9708;53.114;9.388;2023-07-31T14:33:01;18.60;99.90
19152;DHT22;9708;53.114;9.388;2023-07-31T14:35:28;18.60;99.90
19152;DHT22;9708;53.114;9.388;2023-07-31T14:37:56;18.60;99.90
19152;DHT22;9708;53.114;9.388;2023-07-31T14:40:23;18.60;99.90
19152;DHT22;9708;53.114;9.388;2023-07-31T14:42:50;18.60;99.90
19152;DHT22;9708;53.114;9.388;2023-07-31T14:45:16;18.60;99.90
19152;DHT22;9708;53.114;9.388;2023-07-31T14:47:43;18.60;99.90
19152;DHT22;9708;53.114;9.388;2023-07-31T14:50:10;18.70;99.90
19152;DHT22;9708;53.114;9.388;2023-07-31T14:52:37;18.80;99.90
19152;DHT22;9708;53.114;9.388;2023-07-31T14:55:06;18.80;99.90
19152;DHT22;9708;53.114;9.388;2023-07-31T14:57:34;18.80;99.90
19152;DHT22;9708;53.114;9.388;2023-07-31T15:00:01;18.80;99.90
19152;DHT22;9708;53.114;9.388;2023-07-31T15:02:33;18.80;99.90
19152;DHT22;9708;53.114;9.388;2023-07-31T15:05:00;18.80;99.90
19152;DHT22;9708;53.114;9.388;2023-07-31T15:07:27;18.90;99.90
19152;DHT22;9708;53.114;9.388;2023-07-31T15:09:54;18.90;99.90
19152;DHT22;9708;53.114;9.388;2023-07-31T15:12:22;18.90;99.90
19152;DHT22;9708;53.114;9.388;2023-07-31T15:14:49;19.00;99.90
19152;DHT22;9708;53.114;9.388;2023-07-31T15:17:17;18.90;99.90
19152;DHT22;9708;53.114;9.388;2023-07-31T15:19:44;19.00;99.90
19152;DHT22;9708;53.114;9.388;2023-07-31T15:22:11;19.00;99.90
19152;DHT22;9708;53.114;9.388;2023-07-31T15:24:38;19.10;99.90
19152;DHT22;9708;53.114;9.388;2023-07-31T15:27:05;19.00;99.90
19152;DHT22;9708;53.114;9.388;2023-07-31T15:29:35;18.90;99.90
19152;DHT22;9708;53.114;9.388;2023-07-31T15:32:03;19.00;99.90
19152;DHT22;9708;53.114;9.388;2023-07-31T15:34:30;19.00;99.90
19152;DHT22;9708;53.114;9.388;2023-07-31T15:36:58;18.90;99.90
19152;DHT22;9708;53.114;9.388;2023-07-31T15:39:25;18.90;99.90
19152;DHT22;9708;53.114;9.388;2023-07-31T15:41:52;19.00;99.90
19152;DHT22;9708;53.114;9.388;2023-07-31T15:44:19;19.00;99.90
19152;DHT22;9708;53.114;9.388;2023-07-31T15:46:48;18.90;99.90